createdAt,value
2018-08-12T00:00:31.344Z,0.00
2018-08-12T00:01:31.421Z,0.00
2018-08-12T00:02:31.263Z,0.00
2018-08-12T00:03:31.377Z,0.00
2018-08-12T00:04:31.249Z,0.00
2018-08-12T00:05:31.237Z,0.00
2018-08-12T00:06:31.265Z,0.00
2018-08-12T00:07:31.177Z,0.00
2018-08-12T00:08:31.189Z,0.00
2018-08-12T00:09:31.179Z,0.00
2018-08-12T00:10:31.213Z,0.00
2018-08-12T00:11:31.322Z,0.00
2018-08-12T00:12:31.563Z,0.00
2018-08-12T00:13:31.134Z,0.00
2018-08-12T00:14:31.164Z,0.00
2018-08-12T00:15:31.115Z,0.00
2018-08-12T00:16:31.144Z,0.00
2018-08-12T00:17:31.243Z,0.00
2018-08-12T00:18:31.095Z,0.00
2018-08-12T00:19:31.165Z,0.00
2018-08-12T00:20:31.067Z,0.00
2018-08-12T00:21:31.071Z,0.00
2018-08-12T00:22:31.330Z,0.00
2018-08-12T00:23:31.026Z,0.00
2018-08-12T00:24:31.136Z,0.00
2018-08-12T00:25:30.995Z,0.00
2018-08-12T00:26:31.103Z,0.00
2018-08-12T00:27:30.987Z,0.00
2018-08-12T00:28:30.980Z,0.00
2018-08-12T00:29:31.026Z,0.00
2018-08-12T00:30:31.080Z,0.00
2018-08-12T00:31:30.945Z,0.00
2018-08-12T00:32:31.007Z,0.00
2018-08-12T00:33:30.931Z,0.00
2018-08-12T00:34:30.926Z,0.00
2018-08-12T00:35:30.964Z,0.00
2018-08-12T00:36:30.855Z,0.00
2018-08-12T00:37:30.880Z,0.00
2018-08-12T00:38:30.987Z,0.00
2018-08-12T00:39:30.989Z,0.00
2018-08-12T00:40:30.822Z,0.00
2018-08-12T00:41:30.812Z,0.00
2018-08-12T00:42:30.834Z,0.00
2018-08-12T00:43:30.895Z,0.00
2018-08-12T00:44:30.827Z,0.00
2018-08-12T00:45:30.826Z,0.00
2018-08-12T00:46:30.784Z,0.00
2018-08-12T00:47:30.801Z,0.00
2018-08-12T00:48:30.729Z,0.00
2018-08-12T00:49:30.754Z,0.00
2018-08-12T00:50:30.740Z,0.00
2018-08-12T00:51:30.768Z,0.00
2018-08-12T00:52:30.701Z,0.00
2018-08-12T00:53:30.749Z,0.00
2018-08-12T00:54:30.730Z,0.00
2018-08-12T00:55:30.702Z,0.00
2018-08-12T00:56:30.674Z,0.00
2018-08-12T00:57:30.709Z,0.00
2018-08-12T00:58:30.677Z,0.00
2018-08-12T00:59:30.827Z,0.00
2018-08-12T01:00:30.592Z,0.00
2018-08-12T01:01:30.645Z,0.00
2018-08-12T01:02:30.707Z,0.00
2018-08-12T01:03:30.690Z,0.00
2018-08-12T01:04:30.605Z,0.00
2018-08-12T01:05:30.559Z,0.00
2018-08-12T01:06:30.557Z,0.00
2018-08-12T01:07:30.563Z,0.00
2018-08-12T01:08:30.629Z,0.00
2018-08-12T01:09:30.737Z,0.00
2018-08-12T01:10:30.514Z,0.00
2018-08-12T01:11:30.504Z,0.00
2018-08-12T01:12:30.565Z,0.00
2018-08-12T01:13:30.480Z,0.00
2018-08-12T01:14:30.514Z,0.00
2018-08-12T01:15:30.531Z,0.00
2018-08-12T01:16:30.592Z,0.00
2018-08-12T01:17:30.536Z,0.00
2018-08-12T01:18:30.428Z,0.00
2018-08-12T01:19:30.599Z,0.00
2018-08-12T01:20:30.381Z,0.00
2018-08-12T01:21:30.410Z,0.00
2018-08-12T01:22:30.405Z,0.00
2018-08-12T01:23:30.361Z,0.00
2018-08-12T01:24:30.370Z,0.00
2018-08-12T01:25:30.330Z,0.00
2018-08-12T01:26:30.428Z,0.00
2018-08-12T01:27:30.324Z,0.00
2018-08-12T01:28:30.304Z,0.00
2018-08-12T01:29:30.359Z,0.00
2018-08-12T01:30:30.287Z,0.00
2018-08-12T01:31:30.437Z,0.00
2018-08-12T01:32:30.253Z,0.00
2018-08-12T01:33:30.284Z,0.00
2018-08-12T01:34:30.367Z,0.00
2018-08-12T01:35:30.331Z,0.00
2018-08-12T01:36:30.285Z,0.00
2018-08-12T01:37:30.253Z,0.00
2018-08-12T01:38:30.318Z,0.00
2018-08-12T01:39:30.280Z,0.00
2018-08-12T01:40:30.191Z,0.00
2018-08-12T01:41:30.187Z,0.00
2018-08-12T01:42:30.310Z,0.00
2018-08-12T01:43:30.145Z,0.00
2018-08-12T01:44:30.217Z,0.00
2018-08-12T01:45:30.488Z,0.00
2018-08-12T01:46:30.115Z,0.00
2018-08-12T01:47:30.125Z,0.00
2018-08-12T01:48:30.249Z,0.00
2018-08-12T01:49:30.641Z,0.00
2018-08-12T01:50:30.158Z,0.00
2018-08-12T01:51:30.075Z,0.00
2018-08-12T01:52:30.157Z,0.00
2018-08-12T01:53:30.031Z,0.00
2018-08-12T01:54:30.082Z,0.00
2018-08-12T01:55:30.087Z,0.00
2018-08-12T01:56:30.124Z,0.00
2018-08-12T01:57:30.212Z,0.00
2018-08-12T01:58:29.983Z,0.00
2018-08-12T01:59:30.011Z,0.00
2018-08-12T02:00:30.006Z,0.00
2018-08-12T02:01:30.113Z,0.00
2018-08-12T02:02:29.947Z,0.00
2018-08-12T02:03:29.922Z,0.00
2018-08-12T02:04:30.171Z,0.00
2018-08-12T02:05:30.129Z,0.00
2018-08-12T02:06:30.101Z,0.00
2018-08-12T02:07:29.994Z,0.00
2018-08-12T02:08:29.880Z,0.00
2018-08-12T02:09:29.851Z,0.00
2018-08-12T02:10:29.854Z,0.00
2018-08-12T02:11:29.870Z,0.00
2018-08-12T02:12:29.866Z,0.00
2018-08-12T02:13:29.864Z,0.00
2018-08-12T02:14:29.800Z,0.00
2018-08-12T02:15:29.943Z,0.00
2018-08-12T02:16:29.944Z,0.00
2018-08-12T02:17:29.990Z,0.00
2018-08-12T02:18:29.752Z,0.00
2018-08-12T02:19:29.941Z,0.00
2018-08-12T02:20:29.919Z,0.00
2018-08-12T02:21:30.137Z,0.00
2018-08-12T02:22:30.337Z,0.00
2018-08-12T02:23:29.775Z,0.00
2018-08-12T02:24:29.679Z,0.00
2018-08-12T02:25:29.986Z,0.00
2018-08-12T02:26:29.660Z,0.00
2018-08-12T02:27:30.581Z,0.00
2018-08-12T02:28:29.687Z,0.00
2018-08-12T02:29:29.648Z,0.00
2018-08-12T02:30:29.643Z,0.00
2018-08-12T02:31:29.643Z,0.00
2018-08-12T02:32:29.611Z,0.00
2018-08-12T02:33:29.646Z,0.00
2018-08-12T02:34:29.579Z,0.00
2018-08-12T02:35:29.626Z,0.00
2018-08-12T02:36:29.654Z,0.00
2018-08-12T02:37:29.582Z,0.00
2018-08-12T02:38:29.674Z,0.00
2018-08-12T02:39:29.653Z,0.00
2018-08-12T02:40:29.713Z,0.00
2018-08-12T02:41:29.661Z,0.00
2018-08-12T02:42:29.551Z,0.00
2018-08-12T02:43:29.669Z,0.00
2018-08-12T02:44:29.479Z,0.00
2018-08-12T02:45:29.465Z,0.00
2018-08-12T02:46:29.557Z,0.00
2018-08-12T02:47:29.502Z,0.00
2018-08-12T02:48:29.464Z,0.00
2018-08-12T02:49:29.523Z,0.00
2018-08-12T02:50:29.421Z,0.00
2018-08-12T02:51:29.531Z,0.00
2018-08-12T02:52:29.381Z,0.00
2018-08-12T02:53:29.376Z,0.00
2018-08-12T02:54:29.581Z,0.00
2018-08-12T02:55:29.388Z,0.00
2018-08-12T02:56:29.342Z,0.00
2018-08-12T02:57:29.378Z,0.00
2018-08-12T02:58:29.752Z,0.00
2018-08-12T02:59:29.415Z,0.00
2018-08-12T03:00:30.038Z,0.00
2018-08-12T03:01:29.275Z,0.00
2018-08-12T03:02:29.294Z,0.00
2018-08-12T03:03:29.259Z,0.00
2018-08-12T03:04:29.339Z,0.00
2018-08-12T03:05:29.319Z,0.00
2018-08-12T03:06:29.253Z,0.00
2018-08-12T03:07:29.306Z,0.00
2018-08-12T03:08:29.637Z,0.00
2018-08-12T03:09:29.211Z,0.00
2018-08-12T03:10:29.184Z,0.00
2018-08-12T03:11:29.743Z,0.00
2018-08-12T03:12:29.363Z,0.00
2018-08-12T03:13:29.471Z,0.00
2018-08-12T03:14:29.192Z,0.00
2018-08-12T03:15:29.393Z,0.00
2018-08-12T03:16:29.268Z,0.00
2018-08-12T03:17:29.279Z,0.00
2018-08-12T03:18:29.182Z,0.00
2018-08-12T03:19:29.095Z,0.00
2018-08-12T03:20:29.203Z,0.00
2018-08-12T03:21:29.083Z,0.00
2018-08-12T03:22:29.389Z,0.00
2018-08-12T03:23:29.071Z,0.00
2018-08-12T03:24:29.044Z,0.00
2018-08-12T03:25:29.464Z,0.00
2018-08-12T03:26:29.144Z,0.00
2018-08-12T03:27:29.147Z,0.00
2018-08-12T03:28:29.046Z,0.00
2018-08-12T03:29:29.237Z,0.00
2018-08-12T03:30:29.133Z,0.00
2018-08-12T03:31:28.956Z,0.00
2018-08-12T03:32:28.986Z,0.00
2018-08-12T03:33:28.993Z,0.00
2018-08-12T03:34:29.203Z,0.00
2018-08-12T03:35:29.396Z,0.00
2018-08-12T03:36:29.170Z,0.00
2018-08-12T03:37:28.888Z,0.00
2018-08-12T03:38:29.130Z,0.00
2018-08-12T03:39:28.995Z,0.00
2018-08-12T03:40:28.939Z,0.00
2018-08-12T03:41:28.948Z,0.00
2018-08-12T03:42:28.830Z,0.00
2018-08-12T03:43:28.931Z,0.00
2018-08-12T03:44:28.894Z,0.00
2018-08-12T03:45:28.869Z,0.00
2018-08-12T03:46:28.871Z,0.00
2018-08-12T03:47:29.175Z,0.00
2018-08-12T03:48:28.883Z,0.00
2018-08-12T03:49:28.790Z,0.00
2018-08-12T03:50:28.984Z,0.00
2018-08-12T03:51:28.745Z,0.00
2018-08-12T03:52:28.858Z,0.00
2018-08-12T03:53:28.756Z,0.00
2018-08-12T03:54:28.716Z,0.00
2018-08-12T03:55:28.750Z,0.00
2018-08-12T03:56:28.702Z,0.00
2018-08-12T03:57:28.845Z,0.00
2018-08-12T03:58:28.685Z,0.00
2018-08-12T03:59:28.713Z,0.00
2018-08-12T04:00:28.845Z,0.00
2018-08-12T04:01:28.652Z,0.00
2018-08-12T04:02:28.709Z,0.00
2018-08-12T04:03:28.761Z,5.62
2018-08-12T04:04:28.636Z,5.62
2018-08-12T04:05:28.706Z,5.62
2018-08-12T04:06:28.792Z,5.62
2018-08-12T04:07:28.599Z,5.62
2018-08-12T04:08:28.567Z,5.62
2018-08-12T04:09:28.566Z,5.62
2018-08-12T04:10:28.551Z,11.25
2018-08-12T04:11:29.342Z,11.25
2018-08-12T04:12:28.538Z,11.25
2018-08-12T04:13:28.509Z,11.25
2018-08-12T04:14:28.548Z,11.25
2018-08-12T04:15:28.554Z,11.25
2018-08-12T04:16:28.666Z,16.88
2018-08-12T04:17:28.504Z,16.88
2018-08-12T04:18:28.652Z,16.88
2018-08-12T04:19:28.617Z,16.88
2018-08-12T04:20:28.479Z,16.88
2018-08-12T04:21:28.443Z,22.50
2018-08-12T04:22:28.566Z,22.50
2018-08-12T04:23:28.472Z,22.50
2018-08-12T04:24:28.515Z,22.50
2018-08-12T04:25:28.464Z,28.12
2018-08-12T04:26:28.362Z,28.12
2018-08-12T04:27:28.361Z,28.12
2018-08-12T04:28:28.502Z,28.12
2018-08-12T04:29:28.450Z,33.75
2018-08-12T04:30:28.357Z,33.75
2018-08-12T04:31:28.360Z,33.75
2018-08-12T04:32:28.308Z,39.38
2018-08-12T04:33:28.428Z,39.38
2018-08-12T04:34:28.308Z,39.38
2018-08-12T04:35:28.358Z,45.00
2018-08-12T04:36:28.493Z,45.00
2018-08-12T04:37:28.287Z,50.62
2018-08-12T04:38:28.234Z,50.62
2018-08-12T04:39:28.306Z,56.25
2018-08-12T04:40:28.396Z,56.25
2018-08-12T04:41:28.204Z,61.88
2018-08-12T04:42:28.229Z,61.88
2018-08-12T04:43:28.334Z,67.50
2018-08-12T04:44:28.169Z,67.50
2018-08-12T04:45:28.445Z,73.12
2018-08-12T04:46:28.144Z,73.12
2018-08-12T04:47:28.151Z,73.12
2018-08-12T04:48:28.296Z,73.12
2018-08-12T04:49:28.126Z,78.75
2018-08-12T04:50:28.126Z,78.75
2018-08-12T04:51:28.113Z,84.38
2018-08-12T04:52:28.106Z,84.38
2018-08-12T04:53:28.100Z,84.38
2018-08-12T04:54:28.093Z,90.00
2018-08-12T04:55:28.040Z,90.00
2018-08-12T04:56:28.075Z,95.62
2018-08-12T04:57:28.120Z,95.62
2018-08-12T04:58:28.024Z,101.25
2018-08-12T04:59:28.027Z,101.25
2018-08-12T05:00:28.058Z,106.88
2018-08-12T05:01:28.019Z,106.88
2018-08-12T05:02:28.151Z,112.50
2018-08-12T05:03:27.977Z,112.50
2018-08-12T05:04:28.072Z,112.50
2018-08-12T05:05:27.995Z,118.12
2018-08-12T05:06:28.069Z,118.12
2018-08-12T05:07:28.482Z,118.12
2018-08-12T05:08:27.934Z,123.75
2018-08-12T05:09:27.914Z,123.75
2018-08-12T05:10:28.141Z,123.75
2018-08-12T05:11:28.028Z,129.38
2018-08-12T05:12:27.867Z,129.38
2018-08-12T05:13:27.902Z,129.38
2018-08-12T05:14:27.840Z,129.38
2018-08-12T05:15:27.837Z,129.38
2018-08-12T05:16:27.839Z,135.00
2018-08-12T05:17:27.853Z,135.00
2018-08-12T05:18:27.945Z,135.00
2018-08-12T05:19:27.957Z,135.00
2018-08-12T05:20:27.787Z,135.00
2018-08-12T05:21:27.765Z,135.00
2018-08-12T05:22:27.764Z,135.00
2018-08-12T05:23:28.057Z,135.00
2018-08-12T05:24:27.790Z,135.00
2018-08-12T05:25:27.804Z,135.00
2018-08-12T05:26:27.797Z,140.62
2018-08-12T05:27:27.708Z,140.62
2018-08-12T05:28:27.748Z,140.62
2018-08-12T05:29:27.786Z,140.62
2018-08-12T05:30:27.724Z,140.62
2018-08-12T05:31:27.652Z,140.62
2018-08-12T05:32:27.725Z,146.25
2018-08-12T05:33:27.687Z,146.25
2018-08-12T05:34:27.634Z,146.25
2018-08-12T05:35:27.685Z,146.25
2018-08-12T05:36:27.615Z,146.25
2018-08-12T05:37:27.679Z,146.25
2018-08-12T05:38:27.596Z,146.25
2018-08-12T05:39:27.671Z,151.88
2018-08-12T05:40:27.593Z,151.88
2018-08-12T05:41:27.700Z,157.50
2018-08-12T05:42:27.636Z,157.50
2018-08-12T05:43:27.556Z,151.88
2018-08-12T05:44:27.510Z,157.50
2018-08-12T05:45:27.598Z,157.50
2018-08-12T05:46:27.582Z,157.50
2018-08-12T05:47:27.529Z,157.50
2018-08-12T05:48:27.529Z,157.50
2018-08-12T05:49:27.465Z,157.50
2018-08-12T05:50:27.454Z,163.12
2018-08-12T05:51:27.593Z,157.50
2018-08-12T05:52:27.704Z,163.12
2018-08-12T05:53:27.546Z,163.12
2018-08-12T05:54:28.408Z,163.12
2018-08-12T05:55:27.391Z,163.12
2018-08-12T05:56:27.631Z,163.12
2018-08-12T05:57:27.370Z,163.12
2018-08-12T05:58:27.393Z,168.75
2018-08-12T05:59:27.401Z,168.75
2018-08-12T06:00:27.339Z,168.75
2018-08-12T06:01:27.324Z,163.12
2018-08-12T06:02:27.635Z,168.75
2018-08-12T06:03:27.362Z,168.75
2018-08-12T06:04:27.336Z,168.75
2018-08-12T06:05:27.300Z,168.75
2018-08-12T06:06:27.389Z,174.38
2018-08-12T06:07:27.262Z,174.38
2018-08-12T06:08:27.268Z,180.00
2018-08-12T06:09:27.264Z,174.38
2018-08-12T06:10:27.386Z,180.00
2018-08-12T06:11:27.335Z,180.00
2018-08-12T06:12:27.220Z,180.00
2018-08-12T06:13:28.135Z,180.00
2018-08-12T06:14:27.204Z,180.00
2018-08-12T06:15:27.539Z,180.00
2018-08-12T06:16:27.170Z,180.00
2018-08-12T06:17:27.450Z,185.62
2018-08-12T06:18:27.430Z,185.62
2018-08-12T06:19:27.126Z,185.62
2018-08-12T06:20:27.348Z,185.62
2018-08-12T06:21:27.161Z,185.62
2018-08-12T06:22:27.152Z,185.62
2018-08-12T06:23:27.476Z,185.62
2018-08-12T06:24:27.071Z,191.25
2018-08-12T06:25:27.110Z,191.25
2018-08-12T06:26:27.064Z,191.25
2018-08-12T06:27:27.049Z,191.25
2018-08-12T06:28:27.086Z,196.88
2018-08-12T06:29:27.082Z,202.50
2018-08-12T06:30:27.069Z,202.50
2018-08-12T06:31:27.166Z,202.50
2018-08-12T06:32:27.116Z,202.50
2018-08-12T06:33:26.970Z,202.50
2018-08-12T06:34:26.992Z,202.50
2018-08-12T06:35:27.548Z,208.12
2018-08-12T06:36:26.940Z,208.12
2018-08-12T06:37:27.301Z,208.12
2018-08-12T06:38:27.040Z,208.12
2018-08-12T06:39:27.003Z,213.75
2018-08-12T06:40:26.934Z,213.75
2018-08-12T06:41:26.880Z,213.75
2018-08-12T06:42:26.977Z,219.38
2018-08-12T06:43:26.889Z,219.38
2018-08-12T06:44:27.035Z,219.38
2018-08-12T06:45:26.902Z,219.38
2018-08-12T06:46:27.023Z,225.00
2018-08-12T06:47:26.883Z,225.00
2018-08-12T06:48:26.971Z,236.25
2018-08-12T06:49:27.159Z,241.88
2018-08-12T06:50:26.800Z,247.50
2018-08-12T06:51:26.821Z,253.12
2018-08-12T06:52:26.766Z,253.12
2018-08-12T06:53:26.807Z,253.12
2018-08-12T06:54:26.744Z,264.38
2018-08-12T06:55:27.058Z,270.00
2018-08-12T06:56:26.861Z,281.25
2018-08-12T06:57:26.778Z,281.25
2018-08-12T06:58:26.705Z,270.00
2018-08-12T06:59:26.793Z,258.75
2018-08-12T07:00:26.749Z,247.50
2018-08-12T07:01:26.702Z,247.50
2018-08-12T07:02:26.735Z,247.50
2018-08-12T07:03:26.672Z,258.75
2018-08-12T07:04:26.658Z,264.38
2018-08-12T07:05:26.721Z,270.00
2018-08-12T07:06:26.620Z,275.62
2018-08-12T07:07:26.647Z,286.88
2018-08-12T07:08:26.649Z,315.00
2018-08-12T07:09:26.611Z,331.88
2018-08-12T07:10:26.842Z,343.12
2018-08-12T07:11:26.565Z,360.00
2018-08-12T07:12:26.667Z,360.00
2018-08-12T07:13:26.778Z,365.62
2018-08-12T07:14:26.753Z,365.62
2018-08-12T07:15:26.977Z,360.00
2018-08-12T07:16:26.510Z,371.25
2018-08-12T07:17:26.504Z,410.62
2018-08-12T07:18:26.495Z,433.12
2018-08-12T07:19:26.811Z,455.62
2018-08-12T07:20:26.539Z,478.12
2018-08-12T07:21:26.457Z,517.50
2018-08-12T07:22:26.448Z,540.00
2018-08-12T07:23:26.447Z,545.62
2018-08-12T07:24:26.416Z,556.88
2018-08-12T07:25:26.564Z,556.88
2018-08-12T07:26:26.540Z,551.25
2018-08-12T07:27:26.384Z,545.62
2018-08-12T07:28:26.378Z,545.62
2018-08-12T07:29:26.462Z,528.75
2018-08-12T07:30:26.480Z,500.62
2018-08-12T07:31:26.471Z,500.62
2018-08-12T07:32:26.550Z,478.12
2018-08-12T07:33:26.331Z,472.50
2018-08-12T07:34:26.332Z,461.25
2018-08-12T07:35:27.157Z,450.00
2018-08-12T07:36:26.720Z,438.75
2018-08-12T07:37:26.288Z,427.50
2018-08-12T07:38:26.271Z,416.25
2018-08-12T07:39:26.256Z,405.00
2018-08-12T07:40:26.251Z,399.38
2018-08-12T07:41:26.330Z,405.00
2018-08-12T07:42:26.270Z,405.00
2018-08-12T07:43:26.233Z,410.62
2018-08-12T07:44:26.288Z,427.50
2018-08-12T07:45:26.202Z,438.75
2018-08-12T07:46:26.182Z,444.38
2018-08-12T07:47:26.276Z,438.75
2018-08-12T07:48:26.178Z,421.88
2018-08-12T07:49:26.587Z,371.25
2018-08-12T07:50:26.224Z,337.50
2018-08-12T07:51:26.524Z,337.50
2018-08-12T07:52:26.126Z,337.50
2018-08-12T07:53:26.888Z,331.88
2018-08-12T07:54:26.124Z,320.62
2018-08-12T07:55:26.120Z,315.00
2018-08-12T07:56:26.070Z,303.75
2018-08-12T07:57:26.065Z,292.50
2018-08-12T07:58:26.065Z,286.88
2018-08-12T07:59:26.078Z,292.50
2018-08-12T08:00:26.083Z,320.62
2018-08-12T08:01:26.035Z,320.62
2018-08-12T08:02:26.307Z,315.00
2018-08-12T08:03:26.151Z,298.12
2018-08-12T08:04:26.027Z,315.00
2018-08-12T08:05:26.209Z,309.38
2018-08-12T08:06:26.196Z,315.00
2018-08-12T08:07:25.986Z,326.25
2018-08-12T08:08:26.030Z,331.88
2018-08-12T08:09:25.927Z,343.12
2018-08-12T08:10:26.651Z,354.38
2018-08-12T08:11:25.897Z,365.62
2018-08-12T08:12:26.006Z,376.88
2018-08-12T08:13:25.878Z,382.50
2018-08-12T08:14:25.887Z,399.38
2018-08-12T08:15:25.865Z,405.00
2018-08-12T08:16:26.144Z,416.25
2018-08-12T08:17:25.928Z,421.88
2018-08-12T08:18:25.844Z,444.38
2018-08-12T08:19:25.867Z,455.62
2018-08-12T08:20:25.846Z,461.25
2018-08-12T08:21:25.908Z,461.25
2018-08-12T08:22:25.940Z,450.00
2018-08-12T08:23:25.919Z,438.75
2018-08-12T08:24:25.798Z,438.75
2018-08-12T08:25:25.883Z,438.75
2018-08-12T08:26:26.140Z,438.75
2018-08-12T08:27:25.744Z,444.38
2018-08-12T08:28:25.748Z,444.38
2018-08-12T08:29:25.710Z,433.12
2018-08-12T08:30:25.702Z,416.25
2018-08-12T08:31:25.928Z,410.62
2018-08-12T08:32:25.699Z,393.75
2018-08-12T08:33:25.672Z,388.12
2018-08-12T08:34:25.787Z,382.50
2018-08-12T08:35:25.667Z,382.50
2018-08-12T08:36:25.651Z,393.75
2018-08-12T08:37:25.738Z,410.62
2018-08-12T08:38:25.662Z,410.62
2018-08-12T08:39:25.667Z,382.50
2018-08-12T08:40:25.701Z,376.88
2018-08-12T08:41:25.717Z,360.00
2018-08-12T08:42:25.647Z,365.62
2018-08-12T08:43:25.908Z,371.25
2018-08-12T08:44:25.601Z,388.12
2018-08-12T08:45:25.536Z,388.12
2018-08-12T08:46:25.546Z,388.12
2018-08-12T08:47:25.516Z,399.38
2018-08-12T08:48:25.738Z,405.00
2018-08-12T08:49:25.489Z,405.00
2018-08-12T08:50:25.516Z,405.00
2018-08-12T08:51:25.595Z,410.62
2018-08-12T08:52:25.619Z,421.88
2018-08-12T08:53:25.470Z,427.50
2018-08-12T08:54:25.442Z,438.75
2018-08-12T08:55:25.469Z,444.38
2018-08-12T08:56:25.469Z,455.62
2018-08-12T08:57:25.399Z,461.25
2018-08-12T08:58:25.414Z,478.12
2018-08-12T08:59:25.397Z,483.75
2018-08-12T09:00:25.529Z,495.00
2018-08-12T09:01:25.422Z,506.25
2018-08-12T09:02:25.470Z,534.38
2018-08-12T09:03:25.516Z,551.25
2018-08-12T09:04:25.350Z,579.38
2018-08-12T09:05:25.347Z,601.88
2018-08-12T09:06:25.322Z,646.88
2018-08-12T09:07:25.355Z,596.25
2018-08-12T09:08:25.555Z,585.00
2018-08-12T09:09:25.282Z,720.00
2018-08-12T09:10:25.269Z,630.00
2018-08-12T09:11:25.294Z,573.75
2018-08-12T09:12:25.430Z,613.12
2018-08-12T09:13:25.267Z,590.62
2018-08-12T09:14:25.222Z,545.62
2018-08-12T09:15:25.216Z,742.50
2018-08-12T09:16:25.233Z,585.00
2018-08-12T09:17:25.227Z,523.12
2018-08-12T09:18:25.285Z,483.75
2018-08-12T09:19:25.186Z,466.88
2018-08-12T09:20:25.169Z,461.25
2018-08-12T09:21:25.219Z,450.00
2018-08-12T09:22:25.186Z,455.62
2018-08-12T09:23:25.218Z,444.38
2018-08-12T09:24:25.228Z,438.75
2018-08-12T09:25:25.114Z,433.12
2018-08-12T09:26:25.129Z,427.50
2018-08-12T09:27:25.126Z,427.50
2018-08-12T09:28:25.083Z,427.50
2018-08-12T09:29:25.499Z,427.50
2018-08-12T09:30:25.070Z,427.50
2018-08-12T09:31:25.069Z,427.50
2018-08-12T09:32:25.063Z,427.50
2018-08-12T09:33:25.262Z,427.50
2018-08-12T09:34:25.040Z,427.50
2018-08-12T09:35:25.282Z,421.88
2018-08-12T09:36:24.988Z,416.25
2018-08-12T09:37:24.982Z,421.88
2018-08-12T09:38:24.975Z,438.75
2018-08-12T09:39:25.010Z,444.38
2018-08-12T09:40:25.001Z,450.00
2018-08-12T09:41:25.025Z,438.75
2018-08-12T09:42:25.102Z,444.38
2018-08-12T09:43:25.006Z,438.75
2018-08-12T09:44:24.937Z,444.38
2018-08-12T09:45:24.928Z,444.38
2018-08-12T09:46:24.882Z,450.00
2018-08-12T09:47:24.898Z,455.62
2018-08-12T09:48:25.048Z,450.00
2018-08-12T09:49:24.841Z,444.38
2018-08-12T09:50:24.979Z,433.12
2018-08-12T09:51:24.851Z,444.38
2018-08-12T09:52:24.826Z,450.00
2018-08-12T09:53:24.820Z,450.00
2018-08-12T09:54:24.842Z,461.25
2018-08-12T09:55:24.904Z,472.50
2018-08-12T09:56:24.780Z,500.62
2018-08-12T09:57:24.914Z,534.38
2018-08-12T09:58:24.813Z,585.00
2018-08-12T09:59:24.807Z,630.00
2018-08-12T10:00:25.003Z,669.38
2018-08-12T10:01:24.724Z,669.38
2018-08-12T10:02:24.771Z,680.62
2018-08-12T10:03:24.711Z,691.88
2018-08-12T10:04:24.781Z,703.12
2018-08-12T10:05:24.774Z,680.62
2018-08-12T10:06:24.765Z,658.12
2018-08-12T10:07:24.695Z,652.50
2018-08-12T10:08:24.696Z,630.00
2018-08-12T10:09:24.770Z,607.50
2018-08-12T10:10:24.684Z,585.00
2018-08-12T10:11:24.624Z,568.12
2018-08-12T10:12:24.673Z,556.88
2018-08-12T10:13:24.615Z,568.12
2018-08-12T10:14:24.686Z,573.75
2018-08-12T10:15:24.853Z,579.38
2018-08-12T10:16:24.638Z,573.75
2018-08-12T10:17:24.568Z,568.12
2018-08-12T10:18:24.566Z,551.25
2018-08-12T10:19:24.549Z,556.88
2018-08-12T10:20:24.555Z,562.50
2018-08-12T10:21:24.637Z,596.25
2018-08-12T10:22:24.594Z,607.50
2018-08-12T10:23:24.506Z,596.25
2018-08-12T10:24:24.487Z,630.00
2018-08-12T10:25:24.674Z,624.38
2018-08-12T10:26:24.799Z,630.00
2018-08-12T10:27:24.449Z,618.75
2018-08-12T10:28:24.510Z,613.12
2018-08-12T10:29:24.450Z,624.38
2018-08-12T10:30:24.421Z,641.25
2018-08-12T10:31:24.397Z,663.75
2018-08-12T10:32:24.395Z,663.75
2018-08-12T10:33:24.443Z,663.75
2018-08-12T10:34:24.532Z,663.75
2018-08-12T10:35:24.427Z,652.50
2018-08-12T10:36:24.368Z,630.00
2018-08-12T10:37:24.433Z,601.88
2018-08-12T10:38:24.369Z,585.00
2018-08-12T10:39:24.325Z,562.50
2018-08-12T10:40:24.495Z,562.50
2018-08-12T10:41:24.296Z,545.62
2018-08-12T10:42:24.312Z,551.25
2018-08-12T10:43:24.319Z,551.25
2018-08-12T10:44:24.440Z,540.00
2018-08-12T10:45:24.286Z,540.00
2018-08-12T10:46:24.384Z,540.00
2018-08-12T10:47:24.261Z,534.38
2018-08-12T10:48:24.258Z,528.75
2018-08-12T10:49:24.218Z,523.12
2018-08-12T10:50:24.221Z,517.50
2018-08-12T10:51:24.226Z,517.50
2018-08-12T10:52:24.342Z,506.25
2018-08-12T10:53:24.194Z,500.62
2018-08-12T10:54:24.162Z,489.38
2018-08-12T10:55:24.152Z,483.75
2018-08-12T10:56:24.208Z,478.12
2018-08-12T10:57:24.199Z,472.50
2018-08-12T10:58:24.141Z,478.12
2018-08-12T10:59:24.252Z,483.75
2018-08-12T11:00:24.129Z,483.75
2018-08-12T11:01:24.108Z,489.38
2018-08-12T11:02:24.160Z,495.00
2018-08-12T11:03:24.130Z,495.00
2018-08-12T11:04:24.136Z,506.25
2018-08-12T11:05:24.207Z,523.12
2018-08-12T11:06:24.039Z,534.38
2018-08-12T11:07:24.083Z,545.62
2018-08-12T11:08:24.067Z,556.88
2018-08-12T11:09:24.066Z,562.50
2018-08-12T11:10:24.031Z,579.38
2018-08-12T11:11:24.023Z,585.00
2018-08-12T11:12:24.017Z,607.50
2018-08-12T11:13:24.071Z,613.12
2018-08-12T11:14:24.224Z,646.88
2018-08-12T11:15:23.939Z,680.62
2018-08-12T11:16:24.044Z,708.75
2018-08-12T11:17:23.915Z,826.88
2018-08-12T11:18:24.010Z,1771.88
2018-08-12T11:19:23.925Z,2103.75
2018-08-12T11:20:24.058Z,2649.38
2018-08-12T11:21:23.884Z,2773.12
2018-08-12T11:22:23.914Z,2604.38
2018-08-12T11:23:23.879Z,2126.25
2018-08-12T11:24:23.856Z,1861.88
2018-08-12T11:25:23.924Z,1957.50
2018-08-12T11:26:23.998Z,2081.25
2018-08-12T11:27:23.846Z,2385.00
2018-08-12T11:28:23.895Z,2621.25
2018-08-12T11:29:23.807Z,2840.62
2018-08-12T11:30:24.020Z,3166.88
2018-08-12T11:31:23.800Z,3318.75
2018-08-12T11:32:23.855Z,3183.75
2018-08-12T11:33:23.819Z,3037.50
2018-08-12T11:34:23.876Z,3436.88
2018-08-12T11:35:23.742Z,3318.75
2018-08-12T11:36:23.889Z,3121.88
2018-08-12T11:37:23.740Z,2992.50
2018-08-12T11:38:23.791Z,2733.75
2018-08-12T11:39:23.700Z,2446.88
2018-08-12T11:40:23.693Z,2767.50
2018-08-12T11:41:24.006Z,3189.38
2018-08-12T11:42:23.754Z,3150.00
2018-08-12T11:43:23.788Z,2728.12
2018-08-12T11:44:23.708Z,2700.00
2018-08-12T11:45:23.689Z,2981.25
2018-08-12T11:46:23.798Z,2992.50
2018-08-12T11:47:23.754Z,2913.75
2018-08-12T11:48:23.687Z,2576.25
2018-08-12T11:49:23.612Z,2266.88
2018-08-12T11:50:23.716Z,2255.62
2018-08-12T11:51:23.604Z,2356.88
2018-08-12T11:52:23.619Z,2576.25
2018-08-12T11:53:23.738Z,2559.38
2018-08-12T11:54:23.592Z,2683.12
2018-08-12T11:55:23.729Z,2750.62
2018-08-12T11:56:23.557Z,3116.25
2018-08-12T11:57:23.548Z,3245.62
2018-08-12T11:58:23.521Z,3144.38
2018-08-12T11:59:23.531Z,3133.12
2018-08-12T12:00:23.538Z,3391.88
2018-08-12T12:01:23.702Z,3442.50
2018-08-12T12:02:23.704Z,3341.25
2018-08-12T12:03:23.505Z,3071.25
2018-08-12T12:04:23.665Z,3453.75
2018-08-12T12:05:23.627Z,3622.50
2018-08-12T12:06:23.490Z,2998.12
2018-08-12T12:07:23.501Z,2626.88
2018-08-12T12:08:23.463Z,3251.25
2018-08-12T12:09:23.458Z,3099.38
2018-08-12T12:10:23.428Z,3093.75
2018-08-12T12:11:23.462Z,3195.00
2018-08-12T12:12:23.485Z,2711.25
2018-08-12T12:13:23.425Z,2587.50
2018-08-12T12:14:23.400Z,2941.88
2018-08-12T12:15:23.650Z,3166.88
2018-08-12T12:16:23.554Z,2587.50
2018-08-12T12:17:23.404Z,2649.38
2018-08-12T12:18:23.406Z,2711.25
2018-08-12T12:19:23.360Z,2964.38
2018-08-12T12:20:23.542Z,2992.50
2018-08-12T12:21:23.522Z,2784.38
2018-08-12T12:22:23.320Z,2818.12
2018-08-12T12:23:23.339Z,2975.62
2018-08-12T12:24:23.354Z,3380.62
2018-08-12T12:25:23.300Z,3380.62
2018-08-12T12:26:23.300Z,3279.38
2018-08-12T12:27:23.316Z,3155.62
2018-08-12T12:28:23.273Z,3251.25
2018-08-12T12:29:23.304Z,3290.62
2018-08-12T12:30:23.273Z,3082.50
2018-08-12T12:31:23.258Z,3189.38
2018-08-12T12:32:23.246Z,3476.25
2018-08-12T12:33:23.242Z,3369.38
2018-08-12T12:34:23.260Z,3262.50
2018-08-12T12:35:23.299Z,3065.62
2018-08-12T12:36:23.210Z,3076.88
2018-08-12T12:37:23.199Z,2857.50
2018-08-12T12:38:23.208Z,2463.75
2018-08-12T12:39:23.180Z,1850.62
2018-08-12T12:40:23.233Z,1777.50
2018-08-12T12:41:23.330Z,1783.12
2018-08-12T12:42:23.202Z,2295.00